Time;durP1;ratioP1;P1;durP2;ratioP2;P2;SDS_P1;SDS_P2;PMS_P1;PMS_P2;Temp;Humidity;BMP_temperature;BMP_pressure;BME280_temperature;BME280_humidity;BME280_pressure;Samples;Min_cycle;Max_cycle;Signal;HPM_P1;HPM_P2
2023/12/20 00:01:39;;;;;;;2.55;0.90;;;10.70;70.00;12.40;101360.00;;;;5028581;28;20200;-78
2023/12/20 00:04:07;;;;;;;6.07;0.95;;;10.70;69.90;12.40;101355.00;;;;5027356;28;20200;-77
2023/12/20 00:06:34;;;;;;;14.25;1.95;;;10.70;69.90;12.40;101348.00;;;;5029514;28;20205;-78
2023/12/20 00:09:01;;;;;;;4.47;1.10;;;10.70;69.90;12.30;101333.00;;;;5028158;28;20207;-77
2023/12/20 00:11:28;;;;;;;6.60;1.00;;;10.70;69.80;12.30;101335.00;;;;5028747;28;20224;-78
2023/12/20 00:13:56;;;;;;;4.47;0.93;;;10.60;69.80;12.30;101338.00;;;;5028105;28;20197;-78
2023/12/20 00:16:23;;;;;;;1.75;0.70;;;10.60;69.80;12.30;101333.00;;;;5025355;28;20252;-78
2023/12/20 00:18:50;;;;;;;2.95;0.60;;;10.60;69.80;12.30;101331.00;;;;5029331;28;20196;-77
2023/12/20 00:21:17;;;;;;;4.45;1.00;;;10.60;69.80;12.30;101335.00;;;;5027240;28;20197;-77
2023/12/20 00:23:44;;;;;;;4.53;1.05;;;10.60;69.80;12.30;101331.00;;;;5023264;28;20224;-78
2023/12/20 00:26:11;;;;;;;6.68;1.30;;;10.60;69.80;12.30;101332.00;;;;5028915;28;20196;-78
2023/12/20 00:28:38;;;;;;;1.83;0.63;;;10.50;69.70;12.20;101343.00;;;;5025433;28;20208;-77
2023/12/20 00:31:07;;;;;;;2.65;0.80;;;10.50;69.70;12.20;101327.00;;;;5027785;28;20224;-77
2023/12/20 00:33:33;;;;;;;6.60;1.48;;;10.50;69.70;12.20;101331.00;;;;5029432;28;20208;-77
2023/12/20 00:36:01;;;;;;;2.70;1.10;;;10.50;69.70;12.20;101335.00;;;;5026570;28;20203;-78
2023/12/20 00:38:28;;;;;;;3.03;0.57;;;10.50;69.60;12.20;101344.00;;;;5024983;28;20275;-77
2023/12/20 00:40:55;;;;;;;5.63;1.02;;;10.40;69.40;12.10;101349.00;;;;5027873;28;20700;-77
2023/12/20 00:43:22;;;;;;;2.47;0.68;;;10.40;70.10;12.10;101339.00;;;;5026943;28;20192;-77
2023/12/20 00:45:49;;;;;;;4.97;0.88;;;10.30;69.40;12.10;101340.00;;;;5026796;28;20210;-77
2023/12/20 00:48:17;;;;;;;1.95;0.63;;;10.30;69.40;12.00;101335.00;;;;5027393;28;20195;-78
2023/12/20 00:50:44;;;;;;;1.83;0.60;;;10.30;69.40;12.00;101338.00;;;;5026918;28;20220;-77
2023/12/20 00:53:11;;;;;;;4.55;0.80;;;10.30;69.50;12.00;101333.00;;;;5029386;28;20199;-77
2023/12/20 00:55:38;;;;;;;4.50;0.90;;;10.30;69.60;11.90;101331.00;;;;5027751;28;20579;-78
2023/12/20 00:58:05;;;;;;;2.85;1.05;;;10.20;69.50;11.90;101323.00;;;;5028180;28;20232;-78
2023/12/20 01:00:33;;;;;;;6.05;1.02;;;10.20;69.50;11.90;101325.00;;;;5028192;28;20215;-77
2023/12/20 01:02:59;;;;;;;3.45;0.85;;;10.20;69.50;11.90;101328.00;;;;5027490;28;20980;-77
2023/12/20 01:05:28;;;;;;;5.60;1.20;;;10.10;69.60;11.90;101331.00;;;;5026441;28;20204;-77
2023/12/20 01:07:55;;;;;;;2.25;0.77;;;10.10;69.70;11.80;101323.00;;;;5026072;28;20200;-77
2023/12/20 01:10:23;;;;;;;3.95;1.08;;;10.10;69.70;11.80;101324.00;;;;5027401;28;20212;-77
2023/12/20 01:12:50;;;;;;;4.00;0.75;;;10.10;69.70;11.80;101318.00;;;;5026890;28;20196;-77
2023/12/20 01:15:17;;;;;;;2.47;0.88;;;10.00;69.60;11.80;101326.00;;;;5023131;28;20203;-77
2023/12/20 01:17:44;;;;;;;5.00;1.30;;;10.00;69.60;11.80;101316.00;;;;5027274;28;20658;-77
2023/12/20 01:20:11;;;;;;;5.95;0.65;;;10.00;69.60;11.70;101324.00;;;;5026965;28;20841;-78
2023/12/20 01:22:40;;;;;;;4.15;1.00;;;10.00;69.60;11.70;101331.00;;;;5027973;28;20200;-77
2023/12/20 01:25:08;;;;;;;5.35;1.00;;;10.00;69.70;11.70;101330.00;;;;5026509;28;20201;-78
2023/12/20 01:27:35;;;;;;;2.25;0.63;;;9.90;69.60;11.70;101332.00;;;;5026352;28;20294;-77
2023/12/20 01:30:02;;;;;;;3.75;0.75;;;9.90;69.70;11.70;101332.00;;;;5019641;28;20203;-77
2023/12/20 01:32:28;;;;;;;6.72;1.20;;;9.90;69.80;11.70;101336.00;;;;5027228;28;20584;-77
2023/12/20 01:34:57;;;;;;;2.83;0.85;;;9.90;69.90;11.70;101334.00;;;;5026517;28;20197;-77
2023/12/20 01:37:25;;;;;;;4.03;1.00;;;9.90;70.00;11.70;101331.00;;;;5022837;28;20211;-78
2023/12/20 01:39:53;;;;;;;3.10;0.82;;;9.90;70.10;11.70;101330.00;;;;5027418;28;20200;-77
2023/12/20 01:42:21;;;;;;;12.38;1.45;;;9.90;70.20;11.80;101323.00;;;;5028242;28;20585;-78
2023/12/20 01:44:48;;;;;;;7.03;1.08;;;10.00;70.30;11.80;101326.00;;;;5031571;28;20615;-77
2023/12/20 01:47:16;;;;;;;3.47;1.23;;;10.00;70.30;11.80;101336.00;;;;5023164;28;20205;-77
2023/12/20 01:49:43;;;;;;;3.92;1.00;;;10.00;70.30;11.80;101330.00;;;;5026570;28;20278;-77
2023/12/20 01:52:10;;;;;;;5.97;1.08;;;10.00;70.30;11.80;101337.00;;;;5031373;28;20235;-77
2023/12/20 01:54:39;;;;;;;3.78;1.00;;;10.00;70.30;11.80;101325.00;;;;5030023;28;20193;-77
2023/12/20 01:57:08;;;;;;;5.38;0.75;;;10.00;70.30;11.80;101320.00;;;;5031201;28;20207;-77
2023/12/20 01:59:36;;;;;;;2.72;1.00;;;10.00;70.30;11.80;101320.00;;;;4992504;28;20233;-77
2023/12/20 02:02:05;;;;;;;1.60;0.40;;;10.10;70.40;11.80;101320.00;;;;4991999;28;20190;-77
2023/12/20 02:04:32;;;;;;;6.15;1.40;;;10.10;70.30;11.80;101315.00;;;;4990758;28;20194;-77
2023/12/20 02:07:00;;;;;;;4.75;1.35;;;10.10;70.30;11.90;101320.00;;;;4990400;28;20201;-78
2023/12/20 02:09:28;;;;;;;5.57;1.67;;;10.10;70.40;11.90;101328.00;;;;4992241;28;20201;-77
2023/12/20 02:11:55;;;;;;;2.10;0.90;;;10.10;70.30;11.90;101321.00;;;;4991999;28;20228;-78
2023/12/20 02:14:24;;;;;;;4.13;0.90;;;10.20;70.40;11.90;101323.00;;;;4991001;28;20198;-77
2023/12/20 02:16:51;;;;;;;9.55;1.50;;;10.20;70.40;11.90;101321.00;;;;4991792;28;20190;-77
2023/12/20 02:19:20;;;;;;;6.07;1.30;;;10.20;70.30;11.90;101327.00;;;;4991636;28;20232;-77
2023/12/20 02:21:49;;;;;;;2.78;0.82;;;10.20;70.40;11.90;101316.00;;;;4990766;28;20205;-78
2023/12/20 02:24:17;;;;;;;5.38;0.80;;;10.20;70.40;11.90;101317.00;;;;4990803;28;20213;-77
2023/12/20 02:26:45;;;;;;;6.22;1.50;;;10.20;70.40;12.00;101313.00;;;;4989434;28;20202;-77
2023/12/20 02:29:12;;;;;;;7.32;1.00;;;10.20;70.40;12.00;101306.00;;;;4990151;28;20241;-78
2023/12/20 02:31:39;;;;;;;5.13;1.70;;;10.30;70.50;12.00;101315.00;;;;4991068;28;20593;-78
2023/12/20 02:34:06;;;;;;;5.78;1.63;;;10.30;70.40;12.00;101310.00;;;;4990863;28;20197;-79
2023/12/20 02:36:33;;;;;;;3.47;1.17;;;10.30;70.30;12.00;101310.00;;;;4975146;28;20556;-79
2023/12/20 02:39:01;;;;;;;2.67;1.33;;;10.30;70.20;12.00;101308.00;;;;4990393;28;20201;-78
2023/12/20 02:41:28;;;;;;;4.85;1.40;;;10.30;70.20;12.00;101306.00;;;;4982669;28;20205;-79
2023/12/20 02:43:55;;;;;;;6.45;1.40;;;10.30;70.20;12.00;101306.00;;;;4985336;28;20226;-78
2023/12/20 02:46:22;;;;;;;5.30;1.50;;;10.30;70.20;12.00;101306.00;;;;4991229;28;20548;-78
2023/12/20 02:48:49;;;;;;;4.65;1.27;;;10.30;70.20;12.00;101308.00;;;;4991668;28;20194;-76
2023/12/20 02:51:16;;;;;;;6.18;1.17;;;10.30;70.20;12.00;101299.00;;;;4989717;28;20217;-76
2023/12/20 02:53:42;;;;;;;5.95;1.20;;;10.30;70.20;12.10;101303.00;;;;4990113;28;20209;-76
2023/12/20 02:56:11;;;;;;;3.30;1.00;;;10.40;70.30;12.10;101306.00;;;;4988390;28;20288;-76
2023/12/20 02:58:38;;;;;;;4.28;0.80;;;10.40;70.40;12.10;101296.00;;;;5002272;28;20228;-76
2023/12/20 03:01:05;;;;;;;6.60;1.73;;;10.40;70.50;12.10;101292.00;;;;5029034;28;20220;-76
2023/12/20 03:03:31;;;;;;;4.57;0.95;;;10.40;70.50;12.20;101287.00;;;;5030018;28;20212;-76
2023/12/20 03:05:59;;;;;;;9.10;1.20;;;10.40;70.50;12.20;101282.00;;;;5029575;28;20200;-76
2023/12/20 03:08:26;;;;;;;5.85;2.17;;;10.50;70.60;12.20;101278.00;;;;5030014;28;20208;-76
2023/12/20 03:10:53;;;;;;;5.95;1.40;;;10.50;70.50;12.20;101281.00;;;;5028212;28;20216;-75
2023/12/20 03:13:21;;;;;;;8.25;1.45;;;10.50;70.50;12.20;101271.00;;;;5027847;28;20654;-75
2023/12/20 03:15:48;;;;;;;3.60;1.60;;;10.50;70.40;12.30;101282.00;;;;5028596;28;20201;-76
2023/12/20 03:18:15;;;;;;;5.72;1.13;;;10.50;70.40;12.30;101286.00;;;;5026586;28;20221;-76
2023/12/20 03:20:42;;;;;;;5.03;1.48;;;10.60;70.40;12.30;101288.00;;;;5028685;28;20670;-76
2023/12/20 03:23:09;;;;;;;8.25;1.42;;;10.60;70.40;12.30;101288.00;;;;5028720;28;20193;-76
2023/12/20 03:25:36;;;;;;;7.50;1.77;;;10.60;70.50;12.40;101281.00;;;;5029090;28;20196;-76
2023/12/20 03:28:03;;;;;;;7.88;1.25;;;10.60;70.40;12.40;101283.00;;;;5029003;28;20203;-76
2023/12/20 03:30:32;;;;;;;4.07;0.90;;;10.70;70.50;12.40;101286.00;;;;5029152;28;20196;-76
2023/12/20 03:32:59;;;;;;;8.00;1.52;;;10.70;70.50;12.40;101281.00;;;;5029518;28;20227;-76
2023/12/20 03:35:25;;;;;;;3.55;1.73;;;10.70;70.50;12.50;101270.00;;;;5028192;28;21837;-76
2023/12/20 03:37:52;;;;;;;5.63;1.63;;;10.80;70.50;12.50;101270.00;;;;5028381;28;20571;-77
2023/12/20 03:40:18;;;;;;;5.75;1.45;;;10.80;70.50;12.50;101275.00;;;;5029154;28;20192;-77
2023/12/20 03:42:45;;;;;;;4.57;1.08;;;10.80;70.40;12.50;101272.00;;;;5028365;28;20211;-77
2023/12/20 03:45:12;;;;;;;7.75;1.92;;;10.80;70.40;12.60;101272.00;;;;5027818;28;20206;-77
2023/12/20 03:47:41;;;;;;;4.82;1.42;;;10.90;70.40;12.60;101275.00;;;;5029023;28;20761;-77
2023/12/20 03:50:08;;;;;;;6.70;1.38;;;10.90;70.30;12.60;101282.00;;;;5024031;28;20200;-77
2023/12/20 03:52:35;;;;;;;7.70;1.83;;;10.90;70.30;12.60;101285.00;;;;5027502;28;20235;-77
2023/12/20 03:55:02;;;;;;;8.05;1.15;;;10.90;70.10;12.60;101287.00;;;;5027207;28;20208;-76
2023/12/20 03:57:29;;;;;;;6.78;1.38;;;10.90;70.10;12.60;101276.00;;;;5029149;28;20258;-77
2023/12/20 03:59:56;;;;;;;6.32;1.25;;;10.90;70.10;12.60;101282.00;;;;5029645;28;20252;-77
2023/12/20 04:02:23;;;;;;;10.05;1.33;;;10.90;70.10;12.60;101276.00;;;;5026344;28;20196;-77
2023/12/20 04:04:53;;;;;;;2.95;1.05;;;10.90;70.00;12.60;101284.00;;;;5027857;28;20227;-77
2023/12/20 04:07:20;;;;;;;7.03;1.58;;;11.00;70.00;12.60;101276.00;;;;5027680;28;20196;-77
2023/12/20 04:09:48;;;;;;;6.15;1.60;;;11.00;69.90;12.60;101276.00;;;;5028469;28;20193;-77
2023/12/20 04:12:14;;;;;;;10.88;2.08;;;11.00;69.80;12.60;101284.00;;;;5026057;28;20224;-76
2023/12/20 04:14:41;;;;;;;5.47;1.55;;;11.00;69.70;12.60;101273.00;;;;5027461;28;20246;-77
2023/12/20 04:17:08;;;;;;;7.07;1.40;;;11.00;69.80;12.60;101277.00;;;;5027099;28;21002;-77
2023/12/20 04:19:35;;;;;;;7.97;1.92;;;11.00;69.80;12.60;101276.00;;;;5028975;28;20197;-77
2023/12/20 04:22:04;;;;;;;10.60;1.45;;;11.00;69.80;12.50;101275.00;;;;5027900;28;20211;-77
2023/12/20 04:24:31;;;;;;;7.03;1.33;;;11.00;69.80;12.60;101269.00;;;;5027481;28;20211;-77
2023/12/20 04:26:58;;;;;;;6.25;1.10;;;11.00;69.70;12.50;101264.00;;;;5020995;28;20197;-77
2023/12/20 04:29:25;;;;;;;5.88;1.45;;;10.90;69.60;12.60;101271.00;;;;5026705;28;20211;-77
2023/12/20 04:31:52;;;;;;;7.38;1.65;;;11.00;69.70;12.60;101264.00;;;;5026896;28;20227;-77
2023/12/20 04:34:19;;;;;;;4.55;1.38;;;10.90;69.60;12.60;101268.00;;;;5027640;28;20292;-77
2023/12/20 04:36:46;;;;;;;8.68;2.10;;;11.00;69.70;12.60;101267.00;;;;5028427;28;20230;-77
2023/12/20 04:39:15;;;;;;;9.52;1.60;;;11.00;69.80;12.60;101281.00;;;;5028274;28;20196;-77
2023/12/20 04:41:42;;;;;;;7.50;1.92;;;11.00;69.80;12.60;101284.00;;;;5027268;28;20246;-77
2023/12/20 04:44:09;;;;;;;5.65;1.42;;;11.00;69.80;12.60;101282.00;;;;5026276;28;20701;-77
2023/12/20 04:46:36;;;;;;;6.32;1.15;;;11.10;69.80;12.60;101271.00;;;;5027991;28;20226;-77
2023/12/20 04:49:03;;;;;;;4.82;1.27;;;11.10;69.80;12.60;101272.00;;;;5026267;28;20193;-77
2023/12/20 04:51:34;;;;;;;5.68;1.40;;;11.10;69.80;12.60;101266.00;;;;5026378;28;20231;-77
2023/12/20 04:54:01;;;;;;;5.10;1.15;;;11.10;69.70;12.70;101264.00;;;;5026888;28;20196;-77
2023/12/20 04:56:30;;;;;;;8.20;1.83;;;11.10;69.60;12.70;101263.00;;;;5028336;28;20192;-77
2023/12/20 04:58:56;;;;;;;5.82;1.40;;;11.10;69.60;12.70;101244.00;;;;5027753;28;20227;-78
2023/12/20 05:01:23;;;;;;;5.90;1.13;;;11.10;69.50;12.70;101253.00;;;;5025858;28;20220;-77
2023/12/20 05:03:50;;;;;;;8.30;1.60;;;11.10;69.50;12.80;101250.00;;;;5026040;28;20511;-77
2023/12/20 05:06:17;;;;;;;7.30;2.05;;;11.20;69.50;12.80;101243.00;;;;5028177;28;20204;-76
2023/12/20 05:08:44;;;;;;;4.70;1.25;;;11.20;69.50;12.80;101252.00;;;;5026307;28;20697;-76
2023/12/20 05:11:13;;;;;;;6.00;1.85;;;11.20;69.40;12.80;101242.00;;;;5025024;28;20200;-76
2023/12/20 05:13:41;;;;;;;13.18;1.48;;;11.30;69.40;12.80;101251.00;;;;5026597;28;20196;-76
2023/12/20 05:16:08;;;;;;;5.95;1.40;;;11.30;69.40;12.80;101253.00;;;;5025792;28;20198;-76
2023/12/20 05:18:36;;;;;;;12.73;2.03;;;11.30;69.40;12.90;101255.00;;;;5020458;28;20199;-76
2023/12/20 05:21:03;;;;;;;6.30;1.40;;;11.30;69.40;12.90;101250.00;;;;5027103;28;20201;-77
2023/12/20 05:23:30;;;;;;;4.63;1.55;;;11.40;69.30;12.90;101249.00;;;;5032582;28;20676;-77
2023/12/20 05:25:57;;;;;;;11.27;2.53;;;11.30;69.20;12.90;101251.00;;;;5028995;28;20203;-77
2023/12/20 05:28:23;;;;;;;9.90;1.63;;;11.40;69.30;13.00;101252.00;;;;5022918;28;20204;-77
2023/12/20 05:30:52;;;;;;;8.43;1.50;;;11.40;69.30;13.00;101249.00;;;;5027050;28;20196;-77
2023/12/20 05:33:19;;;;;;;9.00;1.83;;;11.40;69.30;13.00;101257.00;;;;5026805;28;20224;-77
2023/12/20 05:35:46;;;;;;;5.22;1.48;;;11.40;69.30;13.00;101251.00;;;;5026478;28;20594;-77
2023/12/20 05:38:13;;;;;;;7.63;1.25;;;11.40;69.30;13.00;101241.00;;;;5028213;28;20678;-77
2023/12/20 05:40:40;;;;;;;6.15;1.48;;;11.50;69.20;13.00;101257.00;;;;5026704;28;20669;-76
2023/12/20 05:43:07;;;;;;;9.15;1.83;;;11.50;69.10;13.10;101266.00;;;;5026490;28;20196;-77
2023/12/20 05:45:34;;;;;;;9.57;1.83;;;11.50;69.10;13.10;101258.00;;;;5017622;28;20915;-77
2023/12/20 05:48:02;;;;;;;6.50;1.52;;;11.50;69.00;13.10;101260.00;;;;5028089;28;20204;-77
2023/12/20 05:50:29;;;;;;;9.25;1.98;;;11.50;69.00;13.10;101262.00;;;;5027695;28;20693;-76
2023/12/20 05:52:56;;;;;;;6.15;1.40;;;11.50;69.00;13.10;101256.00;;;;5026248;28;20226;-76
2023/12/20 05:55:23;;;;;;;7.18;1.63;;;11.50;68.90;13.10;101258.00;;;;5026242;28;20551;-76
2023/12/20 05:57:50;;;;;;;6.80;1.55;;;11.50;68.80;13.10;101259.00;;;;5027206;28;20229;-77
2023/12/20 06:00:18;;;;;;;9.75;1.40;;;11.60;68.90;13.10;101254.00;;;;5026371;28;20219;-76
2023/12/20 06:02:45;;;;;;;5.22;1.10;;;11.60;68.80;13.10;101254.00;;;;5022325;28;20209;-76
2023/12/20 06:05:14;;;;;;;8.00;1.42;;;11.60;68.70;13.10;101251.00;;;;5023015;28;20236;-76
2023/12/20 06:07:41;;;;;;;10.52;1.55;;;11.60;68.70;13.20;101247.00;;;;5017879;28;20201;-76
2023/12/20 06:10:08;;;;;;;7.30;1.55;;;11.60;68.70;13.20;101252.00;;;;5026613;28;20209;-76
2023/12/20 06:12:36;;;;;;;5.43;1.98;;;11.60;68.70;13.20;101257.00;;;;5026585;28;20223;-76
2023/12/20 06:15:04;;;;;;;6.65;1.15;;;11.60;68.70;13.20;101260.00;;;;5025677;28;20263;-76
2023/12/20 06:17:31;;;;;;;7.82;1.67;;;11.60;68.60;13.20;101252.00;;;;5023096;28;20196;-76
2023/12/20 06:19:58;;;;;;;7.63;1.77;;;11.60;68.70;13.20;101246.00;;;;5021261;28;20702;-76
2023/12/20 06:22:26;;;;;;;8.40;1.73;;;11.60;68.60;13.20;101246.00;;;;5026318;28;20211;-76
2023/12/20 06:24:53;;;;;;;9.93;1.83;;;11.60;68.50;13.20;101250.00;;;;5025670;28;20204;-76
2023/12/20 06:27:20;;;;;;;6.13;1.60;;;11.60;68.50;13.30;101262.00;;;;5027147;28;20192;-76
2023/12/20 06:29:47;;;;;;;6.07;1.40;;;11.60;68.50;13.20;101252.00;;;;5029685;28;20223;-76
2023/12/20 06:32:14;;;;;;;4.28;1.42;;;11.70;68.50;13.20;101255.00;;;;5028693;28;20230;-76
2023/12/20 06:34:41;;;;;;;8.10;1.27;;;11.70;68.50;13.30;101259.00;;;;5025834;28;20201;-75
2023/12/20 06:37:08;;;;;;;8.35;1.35;;;11.60;68.50;13.30;101259.00;;;;5029619;28;20206;-75
2023/12/20 06:39:36;;;;;;;3.60;1.50;;;11.70;68.50;13.20;101248.00;;;;5024806;28;20207;-75
2023/12/20 06:42:04;;;;;;;8.95;1.50;;;11.70;68.40;13.20;101254.00;;;;5028936;28;20585;-75
2023/12/20 06:44:31;;;;;;;12.57;2.15;;;11.70;68.30;13.20;101246.00;;;;5028724;28;20199;-75
2023/12/20 06:46:58;;;;;;;9.32;1.55;;;11.70;68.40;13.20;101248.00;;;;5025076;28;20204;-75
2023/12/20 06:49:25;;;;;;;14.15;2.35;;;11.70;68.40;13.20;101243.00;;;;5029175;28;20200;-75
2023/12/20 06:51:53;;;;;;;5.30;1.80;;;11.70;68.50;13.30;101245.00;;;;5029003;28;20199;-76
2023/12/20 06:54:20;;;;;;;5.95;1.20;;;11.70;68.40;13.30;101240.00;;;;5029320;28;20200;-75
2023/12/20 06:56:48;;;;;;;8.65;1.90;;;11.70;68.50;13.20;101243.00;;;;5030028;28;20688;-75
2023/12/20 06:59:15;;;;;;;6.18;1.83;;;11.70;68.50;13.30;101238.00;;;;5027874;28;20232;-76
2023/12/20 07:01:42;;;;;;;10.43;1.90;;;11.70;68.50;13.30;101240.00;;;;5029330;28;20267;-76
2023/12/20 07:04:10;;;;;;;5.43;1.50;;;11.70;68.50;13.30;101237.00;;;;5024523;28;20212;-76
2023/12/20 07:06:37;;;;;;;6.97;1.90;;;11.70;68.50;13.30;101227.00;;;;5026909;28;20234;-76
2023/12/20 07:09:04;;;;;;;5.88;1.45;;;11.70;68.50;13.30;101231.00;;;;5028789;28;20192;-76
2023/12/20 07:11:30;;;;;;;8.90;2.55;;;11.70;68.50;13.30;101239.00;;;;5030135;28;20658;-76
2023/12/20 07:13:58;;;;;;;6.05;1.67;;;11.70;68.40;13.30;101231.00;;;;5030257;28;20235;-76
2023/12/20 07:16:25;;;;;;;8.30;1.70;;;11.70;68.40;13.30;101231.00;;;;5030020;28;20207;-76
2023/12/20 07:18:53;;;;;;;13.50;1.90;;;11.70;68.40;13.30;101221.00;;;;5029726;28;20196;-76
2023/12/20 07:21:20;;;;;;;8.63;1.42;;;11.70;68.30;13.30;101222.00;;;;5029832;28;20670;-76
2023/12/20 07:23:47;;;;;;;3.45;1.23;;;11.80;68.40;13.30;101232.00;;;;5030154;28;20204;-76
2023/12/20 07:26:14;;;;;;;10.93;1.95;;;11.70;68.30;13.30;101228.00;;;;5030130;28;20196;-76
2023/12/20 07:28:41;;;;;;;6.70;1.90;;;11.80;68.40;13.30;101215.00;;;;5029584;28;20230;-76
2023/12/20 07:31:09;;;;;;;4.60;1.27;;;11.80;68.40;13.30;101223.00;;;;5010696;28;20213;-76
2023/12/20 07:33:36;;;;;;;4.72;1.48;;;11.80;68.40;13.30;101226.00;;;;5011048;28;20749;-76
2023/12/20 07:36:04;;;;;;;8.57;1.88;;;11.80;68.40;13.40;101214.00;;;;5009549;28;20221;-76
2023/12/20 07:38:31;;;;;;;7.43;1.50;;;11.80;68.40;13.40;101221.00;;;;5013553;28;20204;-76
2023/12/20 07:40:58;;;;;;;10.35;1.95;;;11.80;68.30;13.40;101219.00;;;;5029812;28;20219;-76
2023/12/20 07:43:25;;;;;;;9.15;1.60;;;11.80;68.30;13.40;101212.00;;;;5025029;28;20570;-76
2023/12/20 07:45:52;;;;;;;7.70;1.88;;;11.80;68.30;13.40;101221.00;;;;5020178;28;20212;-76
2023/12/20 07:48:20;;;;;;;6.47;1.58;;;11.90;68.30;13.40;101218.00;;;;5010326;28;20210;-76
2023/12/20 07:50:50;;;;;;;4.60;1.23;;;11.90;68.30;13.40;101219.00;;;;5010062;28;20201;-76
2023/12/20 07:53:16;;;;;;;10.57;1.58;;;11.90;68.30;13.50;101222.00;;;;5009853;28;20306;-76
2023/12/20 07:55:44;;;;;;;6.93;2.15;;;11.90;68.30;13.50;101223.00;;;;5008872;28;20683;-76
2023/12/20 07:58:10;;;;;;;6.43;1.50;;;11.90;68.30;13.50;101231.00;;;;5020330;28;20240;-76
2023/12/20 08:00:38;;;;;;;6.65;1.48;;;11.90;68.30;13.50;101238.00;;;;5028969;28;20216;-76
2023/12/20 08:03:05;;;;;;;6.45;1.50;;;12.00;68.20;13.50;101240.00;;;;5028394;28;21078;-76
2023/12/20 08:05:33;;;;;;;6.43;1.30;;;12.00;68.20;13.50;101245.00;;;;5029066;28;20210;-76
2023/12/20 08:08:00;;;;;;;8.50;1.38;;;11.90;68.10;13.50;101240.00;;;;5028502;28;21046;-76
2023/12/20 08:10:29;;;;;;;8.40;2.40;;;12.00;68.20;13.50;101244.00;;;;5028962;28;20532;-77
2023/12/20 08:12:56;;;;;;;10.60;1.60;;;12.00;68.20;13.60;101249.00;;;;5028065;28;20219;-76
2023/12/20 08:15:23;;;;;;;11.10;1.77;;;12.00;68.20;13.60;101247.00;;;;5028479;28;20207;-76
2023/12/20 08:17:51;;;;;;;11.25;1.92;;;12.00;68.80;13.60;101239.00;;;;5028609;28;20196;-76
2023/12/20 08:20:18;;;;;;;6.30;1.40;;;12.00;68.20;13.60;101255.00;;;;5028410;28;20678;-76
2023/12/20 08:22:53;;;;;;;4.60;1.58;;;12.00;68.20;13.60;101247.00;;;;5028342;28;20204;-77
2023/12/20 08:25:20;;;;;;;8.70;2.20;;;12.00;68.20;13.60;101252.00;;;;5029231;28;20263;-76
2023/12/20 08:27:48;;;;;;;8.75;1.95;;;12.10;68.30;13.60;101247.00;;;;5028491;28;20200;-76
2023/12/20 08:30:17;;;;;;;10.38;1.77;;;12.10;68.10;13.70;101236.00;;;;5035982;28;20218;-76
2023/12/20 08:32:44;;;;;;;6.15;1.92;;;12.10;68.10;13.70;101239.00;;;;5033332;28;20219;-76
2023/12/20 08:35:10;;;;;;;6.28;1.88;;;12.10;68.00;13.70;101244.00;;;;5028026;28;20228;-76
2023/12/20 08:37:37;;;;;;;7.65;1.42;;;12.10;68.10;13.60;101246.00;;;;5028614;28;20208;-76
2023/12/20 08:40:08;;;;;;;9.63;1.85;;;12.10;68.00;13.60;101235.00;;;;5028467;28;20205;-76
2023/12/20 08:42:35;;;;;;;9.88;1.73;;;12.10;67.90;13.60;101241.00;;;;5028178;28;20235;-76
2023/12/20 08:45:04;;;;;;;11.57;1.63;;;12.20;67.80;13.60;101234.00;;;;5027736;28;20666;-76
2023/12/20 08:47:31;;;;;;;6.45;1.55;;;12.10;67.80;13.60;101240.00;;;;5027865;28;20284;-76
2023/12/20 08:49:59;;;;;;;10.00;2.10;;;12.20;67.80;13.70;101240.00;;;;5026701;28;20208;-76
2023/12/20 08:52:27;;;;;;;9.18;1.67;;;12.20;67.90;13.70;101233.00;;;;5027952;28;20194;-76
2023/12/20 08:54:54;;;;;;;15.90;3.30;;;12.20;67.80;13.70;101235.00;;;;5027930;28;20230;-76
2023/12/20 08:57:23;;;;;;;10.00;1.88;;;12.20;67.80;13.70;101233.00;;;;5027894;28;20204;-76
2023/12/20 08:59:50;;;;;;;6.03;1.52;;;12.20;67.80;13.70;101245.00;;;;5027419;28;20220;-77
2023/12/20 09:02:18;;;;;;;9.70;1.80;;;12.20;67.80;13.70;101238.00;;;;5028293;28;20312;-77
2023/12/20 09:04:45;;;;;;;7.60;1.45;;;12.20;67.70;13.70;101231.00;;;;5027953;28;20203;-76
2023/12/20 09:07:23;;;;;;;7.32;1.60;;;12.20;67.80;13.60;101234.00;;;;5027860;28;20654;-77
2023/12/20 09:09:50;;;;;;;7.70;2.30;;;12.20;67.70;13.70;101239.00;;;;5027623;28;20674;-75
2023/12/20 09:12:19;;;;;;;9.93;1.95;;;12.20;67.70;13.70;101226.00;;;;5027521;28;20200;-75
2023/12/20 09:14:48;;;;;;;4.75;1.33;;;12.30;67.70;13.70;101227.00;;;;5028127;28;20234;-75
2023/12/20 09:17:16;;;;;;;8.07;1.63;;;12.30;67.80;13.80;101227.00;;;;5027003;28;20208;-75
2023/12/20 09:19:43;;;;;;;9.55;1.95;;;12.20;68.10;13.80;101229.00;;;;5027444;28;20239;-75
2023/12/20 09:22:11;;;;;;;5.03;1.40;;;12.30;67.80;13.80;101229.00;;;;5027754;28;20203;-76
2023/12/20 09:24:39;;;;;;;11.35;1.25;;;12.30;67.90;13.80;101228.00;;;;5027478;28;20195;-75
2023/12/20 09:27:06;;;;;;;5.25;1.50;;;12.30;67.90;13.80;101222.00;;;;5028076;28;20218;-76
2023/12/20 09:29:33;;;;;;;5.20;1.63;;;12.30;67.90;13.80;101222.00;;;;5027933;28;20204;-76
2023/12/20 09:32:05;;;;;;;5.82;1.40;;;12.30;67.90;13.80;101229.00;;;;5027653;28;20919;-75
2023/12/20 09:34:32;;;;;;;8.45;2.38;;;12.30;67.90;13.90;101229.00;;;;5027906;28;20732;-75
2023/12/20 09:36:59;;;;;;;8.10;1.77;;;12.30;67.90;13.90;101223.00;;;;5027425;28;20982;-75
2023/12/20 09:39:26;;;;;;;3.33;1.00;;;12.40;68.00;13.90;101229.00;;;;5039266;22;20250;-77
2023/12/20 09:42:02;;;;;;;6.05;1.42;;;12.40;68.00;13.90;101220.00;;;;5025274;22;20702;-76
2023/12/20 09:44:30;;;;;;;7.85;2.05;;;12.40;67.90;14.00;101231.00;;;;5009980;28;20239;-75
2023/12/20 09:46:58;;;;;;;10.20;1.70;;;12.40;68.00;14.00;101235.00;;;;5027359;28;20250;-75
2023/12/20 09:49:29;;;;;;;7.22;1.30;;;12.50;68.10;14.00;101248.00;;;;5027514;28;20575;-74
2023/12/20 09:51:56;;;;;;;6.38;1.23;;;12.50;68.00;14.10;101244.00;;;;5027447;28;20212;-74
2023/12/20 09:54:24;;;;;;;9.32;2.10;;;12.50;67.90;14.10;101236.00;;;;5027168;28;20224;-75
2023/12/20 09:56:51;;;;;;;8.85;1.70;;;12.50;67.90;14.10;101242.00;;;;5026546;28;20204;-75
2023/12/20 09:59:19;;;;;;;6.43;1.00;;;12.60;68.00;14.20;101248.00;;;;5027238;28;20674;-75
2023/12/20 10:01:46;;;;;;;10.15;1.88;;;12.60;67.90;14.10;101240.00;;;;5010404;28;20201;-75
2023/12/20 10:04:14;;;;;;;7.40;1.60;;;12.60;67.90;14.10;101230.00;;;;5011452;28;20666;-75
2023/12/20 10:06:43;;;;;;;6.70;1.45;;;12.60;67.80;14.10;101246.00;;;;5011277;28;20682;-76
2023/12/20 10:09:12;;;;;;;7.93;1.17;;;12.70;67.70;14.20;101251.00;;;;5010756;28;20200;-75
2023/12/20 10:11:40;;;;;;;6.80;1.25;;;12.70;67.70;14.20;101237.00;;;;5011232;28;20203;-75
2023/12/20 10:14:08;;;;;;;12.52;1.83;;;12.70;67.60;14.20;101246.00;;;;5009867;28;20225;-75
2023/12/20 10:16:35;;;;;;;5.88;1.88;;;12.70;67.50;14.20;101244.00;;;;5007469;28;20209;-76
2023/12/20 10:19:02;;;;;;;4.70;1.65;;;12.70;67.50;14.30;101252.00;;;;5006390;28;20231;-75
2023/12/20 10:21:29;;;;;;;4.07;1.00;;;12.70;67.50;14.30;101248.00;;;;5000014;28;20193;-75
2023/12/20 10:23:59;;;;;;;7.43;1.40;;;12.80;67.50;14.30;101238.00;;;;5008481;28;20694;-75
2023/12/20 10:26:43;;;;;;;9.38;2.05;;;12.80;67.60;14.20;101241.00;;;;5008396;28;20205;-75
2023/12/20 10:29:11;;;;;;;12.90;1.85;;;12.80;67.60;14.30;101240.00;;;;5007351;28;20832;-75
2023/12/20 10:31:39;;;;;;;6.38;1.88;;;12.80;67.50;14.40;101241.00;;;;5015745;28;20666;-76
2023/12/20 10:34:06;;;;;;;9.38;1.50;;;12.80;67.50;14.40;101238.00;;;;5006222;28;20232;-75
2023/12/20 10:36:36;;;;;;;7.05;1.38;;;12.90;67.70;14.40;101251.00;;;;5011069;28;20585;-76
2023/12/20 10:39:08;;;;;;;6.95;1.88;;;12.90;67.60;14.40;101238.00;;;;5019116;28;20287;-76
2023/12/20 10:41:41;;;;;;;9.75;2.08;;;12.90;67.60;14.50;101235.00;;;;5029683;28;20602;-76
2023/12/20 10:44:11;;;;;;;7.93;1.77;;;13.00;67.50;14.50;101242.00;;;;5014929;28;20197;-76
2023/12/20 10:46:40;;;;;;;5.95;1.38;;;13.00;67.50;14.50;101240.00;;;;5012246;28;20204;-75
2023/12/20 10:49:10;;;;;;;5.72;1.65;;;13.00;67.50;14.60;101223.00;;;;5015899;28;20211;-75